sensor_id;sensor_type;location;lat;lon;timestamp;P1;durP1;ratioP1;P2;durP2;ratioP2
69213;SDS011;56325;47.030;18.518;2022-08-03T00:01:38;6.18;;;1.00;;
69213;SDS011;56325;47.030;18.518;2022-08-03T00:04:43;1.17;;;0.93;;
69213;SDS011;56325;47.030;18.518;2022-08-03T00:07:46;2.65;;;0.80;;
69213;SDS011;56325;47.030;18.518;2022-08-03T00:10:53;0.80;;;0.80;;
69213;SDS011;56325;47.030;18.518;2022-08-03T00:13:56;2.65;;;0.80;;
69213;SDS011;56325;47.030;18.518;2022-08-03T00:16:59;0.95;;;0.93;;
69213;SDS011;56325;47.030;18.518;2022-08-03T00:20:02;0.88;;;0.85;;
69213;SDS011;56325;47.030;18.518;2022-08-03T00:23:26;1.00;;;1.00;;
69213;SDS011;56325;47.030;18.518;2022-08-03T00:26:48;1.15;;;1.05;;
69213;SDS011;56325;47.030;18.518;2022-08-03T00:29:52;1.90;;;0.98;;
69213;SDS011;56325;47.030;18.518;2022-08-03T00:33:01;2.60;;;1.10;;
69213;SDS011;56325;47.030;18.518;2022-08-03T00:36:06;1.25;;;1.02;;
69213;SDS011;56325;47.030;18.518;2022-08-03T00:39:09;0.88;;;0.80;;
69213;SDS011;56325;47.030;18.518;2022-08-03T00:42:13;1.67;;;1.00;;
69213;SDS011;56325;47.030;18.518;2022-08-03T00:45:17;2.45;;;1.05;;
69213;SDS011;56325;47.030;18.518;2022-08-03T00:48:20;2.25;;;0.98;;
69213;SDS011;56325;47.030;18.518;2022-08-03T00:51:35;2.25;;;1.00;;
69213;SDS011;56325;47.030;18.518;2022-08-03T00:54:38;1.10;;;1.00;;
69213;SDS011;56325;47.030;18.518;2022-08-03T00:57:43;0.93;;;0.93;;
69213;SDS011;56325;47.030;18.518;2022-08-03T01:00:48;1.10;;;1.10;;
69213;SDS011;56325;47.030;18.518;2022-08-03T01:03:52;1.17;;;1.00;;
69213;SDS011;56325;47.030;18.518;2022-08-03T01:17:27;0.98;;;0.98;;
69213;SDS011;56325;47.030;18.518;2022-08-03T01:20:59;4.37;;;1.20;;
69213;SDS011;56325;47.030;18.518;2022-08-03T01:24:09;9.63;;;0.90;;
69213;SDS011;56325;47.030;18.518;2022-08-03T01:31:38;2.12;;;1.37;;
69213;SDS011;56325;47.030;18.518;2022-08-03T01:39:02;1.12;;;1.10;;
69213;SDS011;56325;47.030;18.518;2022-08-03T01:42:12;2.22;;;1.10;;
69213;SDS011;56325;47.030;18.518;2022-08-03T01:45:18;3.22;;;1.02;;
69213;SDS011;56325;47.030;18.518;2022-08-03T01:48:25;1.48;;;1.10;;
69213;SDS011;56325;47.030;18.518;2022-08-03T01:51:31;1.40;;;1.40;;
69213;SDS011;56325;47.030;18.518;2022-08-03T01:54:56;1.27;;;1.10;;
69213;SDS011;56325;47.030;18.518;2022-08-03T01:58:01;3.42;;;1.20;;
69213;SDS011;56325;47.030;18.518;2022-08-03T02:01:28;1.15;;;1.10;;
69213;SDS011;56325;47.030;18.518;2022-08-03T02:04:54;1.12;;;1.12;;
69213;SDS011;56325;47.030;18.518;2022-08-03T02:08:12;1.10;;;1.10;;
69213;SDS011;56325;47.030;18.518;2022-08-03T02:11:19;1.00;;;1.00;;
69213;SDS011;56325;47.030;18.518;2022-08-03T02:14:22;1.12;;;1.05;;
69213;SDS011;56325;47.030;18.518;2022-08-03T02:17:30;4.90;;;1.30;;
69213;SDS011;56325;47.030;18.518;2022-08-03T02:20:42;1.02;;;1.02;;
69213;SDS011;56325;47.030;18.518;2022-08-03T02:23:49;1.10;;;1.10;;
69213;SDS011;56325;47.030;18.518;2022-08-03T02:26:53;1.45;;;1.30;;
69213;SDS011;56325;47.030;18.518;2022-08-03T02:30:04;2.33;;;1.17;;
69213;SDS011;56325;47.030;18.518;2022-08-03T02:33:31;1.98;;;1.55;;
69213;SDS011;56325;47.030;18.518;2022-08-03T02:36:41;4.90;;;1.23;;
69213;SDS011;56325;47.030;18.518;2022-08-03T02:39:48;1.15;;;1.12;;
69213;SDS011;56325;47.030;18.518;2022-08-03T02:42:57;4.05;;;1.30;;
69213;SDS011;56325;47.030;18.518;2022-08-03T02:46:02;4.43;;;1.55;;
69213;SDS011;56325;47.030;18.518;2022-08-03T02:49:11;1.10;;;1.10;;
69213;SDS011;56325;47.030;18.518;2022-08-03T02:53:15;1.23;;;1.23;;
69213;SDS011;56325;47.030;18.518;2022-08-03T02:56:23;2.83;;;1.25;;
69213;SDS011;56325;47.030;18.518;2022-08-03T02:59:33;1.42;;;1.23;;
69213;SDS011;56325;47.030;18.518;2022-08-03T03:02:47;1.10;;;1.10;;
69213;SDS011;56325;47.030;18.518;2022-08-03T03:06:00;4.43;;;1.30;;
69213;SDS011;56325;47.030;18.518;2022-08-03T03:09:31;1.50;;;1.40;;
69213;SDS011;56325;47.030;18.518;2022-08-03T03:12:43;3.45;;;1.55;;
69213;SDS011;56325;47.030;18.518;2022-08-03T03:15:48;1.40;;;1.40;;
69213;SDS011;56325;47.030;18.518;2022-08-03T03:18:53;2.45;;;1.70;;
69213;SDS011;56325;47.030;18.518;2022-08-03T03:21:57;1.90;;;1.67;;
69213;SDS011;56325;47.030;18.518;2022-08-03T03:25:02;4.53;;;1.60;;
69213;SDS011;56325;47.030;18.518;2022-08-03T03:28:08;4.65;;;1.40;;
69213;SDS011;56325;47.030;18.518;2022-08-03T03:31:32;2.28;;;1.50;;
69213;SDS011;56325;47.030;18.518;2022-08-03T03:35:00;2.08;;;1.40;;
69213;SDS011;56325;47.030;18.518;2022-08-03T03:38:29;1.70;;;1.60;;
69213;SDS011;56325;47.030;18.518;2022-08-03T03:41:33;6.22;;;1.70;;
69213;SDS011;56325;47.030;18.518;2022-08-03T03:44:36;6.93;;;1.98;;
69213;SDS011;56325;47.030;18.518;2022-08-03T03:47:42;6.37;;;1.73;;
69213;SDS011;56325;47.030;18.518;2022-08-03T03:50:47;3.05;;;1.75;;
69213;SDS011;56325;47.030;18.518;2022-08-03T03:53:58;6.72;;;1.70;;
69213;SDS011;56325;47.030;18.518;2022-08-03T03:57:24;2.30;;;1.55;;
69213;SDS011;56325;47.030;18.518;2022-08-03T04:00:28;5.12;;;1.77;;
69213;SDS011;56325;47.030;18.518;2022-08-03T04:03:33;3.62;;;1.65;;
69213;SDS011;56325;47.030;18.518;2022-08-03T04:06:40;1.55;;;1.37;;
69213;SDS011;56325;47.030;18.518;2022-08-03T04:10:22;1.65;;;1.65;;
69213;SDS011;56325;47.030;18.518;2022-08-03T04:13:49;1.92;;;1.62;;
69213;SDS011;56325;47.030;18.518;2022-08-03T04:17:16;5.07;;;1.70;;
69213;SDS011;56325;47.030;18.518;2022-08-03T04:20:22;6.68;;;1.70;;
69213;SDS011;56325;47.030;18.518;2022-08-03T04:23:29;3.20;;;1.65;;
69213;SDS011;56325;47.030;18.518;2022-08-03T04:26:36;6.05;;;1.85;;
69213;SDS011;56325;47.030;18.518;2022-08-03T04:29:45;3.70;;;2.25;;
69213;SDS011;56325;47.030;18.518;2022-08-03T04:32:50;4.03;;;2.50;;
69213;SDS011;56325;47.030;18.518;2022-08-03T04:35:56;3.78;;;2.03;;
69213;SDS011;56325;47.030;18.518;2022-08-03T04:39:24;2.53;;;2.33;;
69213;SDS011;56325;47.030;18.518;2022-08-03T04:42:30;12.77;;;2.15;;
69213;SDS011;56325;47.030;18.518;2022-08-03T04:45:55;5.43;;;2.33;;
69213;SDS011;56325;47.030;18.518;2022-08-03T04:49:19;2.87;;;2.05;;
69213;SDS011;56325;47.030;18.518;2022-08-03T04:52:44;2.08;;;2.08;;
69213;SDS011;56325;47.030;18.518;2022-08-03T04:56:27;2.50;;;2.30;;
69213;SDS011;56325;47.030;18.518;2022-08-03T04:59:51;2.47;;;2.25;;
69213;SDS011;56325;47.030;18.518;2022-08-03T05:03:36;2.30;;;2.20;;
69213;SDS011;56325;47.030;18.518;2022-08-03T05:06:59;4.85;;;1.98;;
69213;SDS011;56325;47.030;18.518;2022-08-03T05:10:35;5.65;;;2.28;;
69213;SDS011;56325;47.030;18.518;2022-08-03T05:13:38;6.57;;;2.53;;
69213;SDS011;56325;47.030;18.518;2022-08-03T05:16:41;5.20;;;2.50;;
69213;SDS011;56325;47.030;18.518;2022-08-03T05:19:45;4.95;;;2.90;;
69213;SDS011;56325;47.030;18.518;2022-08-03T05:22:49;8.00;;;2.45;;
69213;SDS011;56325;47.030;18.518;2022-08-03T05:26:12;2.85;;;2.70;;
69213;SDS011;56325;47.030;18.518;2022-08-03T05:29:35;4.60;;;2.83;;
69213;SDS011;56325;47.030;18.518;2022-08-03T05:32:59;4.82;;;2.95;;
69213;SDS011;56325;47.030;18.518;2022-08-03T05:36:04;3.90;;;3.30;;
69213;SDS011;56325;47.030;18.518;2022-08-03T05:39:27;3.20;;;3.00;;
69213;SDS011;56325;47.030;18.518;2022-08-03T05:42:31;9.25;;;3.10;;
69213;SDS011;56325;47.030;18.518;2022-08-03T05:45:54;5.55;;;2.83;;
69213;SDS011;56325;47.030;18.518;2022-08-03T05:49:35;4.32;;;3.20;;
69213;SDS011;56325;47.030;18.518;2022-08-03T05:52:39;6.85;;;3.17;;
69213;SDS011;56325;47.030;18.518;2022-08-03T05:55:57;3.15;;;2.95;;
69213;SDS011;56325;47.030;18.518;2022-08-03T05:59:16;3.10;;;2.97;;
69213;SDS011;56325;47.030;18.518;2022-08-03T06:02:39;5.07;;;3.12;;
69213;SDS011;56325;47.030;18.518;2022-08-03T06:05:44;3.20;;;3.10;;
69213;SDS011;56325;47.030;18.518;2022-08-03T06:09:08;3.03;;;2.78;;
69213;SDS011;56325;47.030;18.518;2022-08-03T06:12:14;9.45;;;3.40;;
69213;SDS011;56325;47.030;18.518;2022-08-03T06:15:18;3.10;;;3.00;;
69213;SDS011;56325;47.030;18.518;2022-08-03T06:18:42;3.05;;;2.87;;
69213;SDS011;56325;47.030;18.518;2022-08-03T06:22:00;3.03;;;2.92;;
69213;SDS011;56325;47.030;18.518;2022-08-03T06:25:25;3.67;;;3.30;;
69213;SDS011;56325;47.030;18.518;2022-08-03T06:28:29;3.65;;;3.37;;
69213;SDS011;56325;47.030;18.518;2022-08-03T06:31:52;3.12;;;3.03;;
69213;SDS011;56325;47.030;18.518;2022-08-03T06:34:55;5.18;;;3.45;;
69213;SDS011;56325;47.030;18.518;2022-08-03T06:38:04;3.35;;;3.20;;
69213;SDS011;56325;47.030;18.518;2022-08-03T06:41:08;8.25;;;3.10;;
69213;SDS011;56325;47.030;18.518;2022-08-03T06:44:11;7.07;;;3.80;;
69213;SDS011;56325;47.030;18.518;2022-08-03T06:47:35;4.57;;;3.80;;
69213;SDS011;56325;47.030;18.518;2022-08-03T06:51:01;4.90;;;4.35;;
69213;SDS011;56325;47.030;18.518;2022-08-03T06:54:10;4.10;;;3.75;;
69213;SDS011;56325;47.030;18.518;2022-08-03T06:57:14;5.07;;;3.78;;
69213;SDS011;56325;47.030;18.518;2022-08-03T07:00:37;3.80;;;3.70;;
69213;SDS011;56325;47.030;18.518;2022-08-03T07:03:42;4.37;;;3.90;;
69213;SDS011;56325;47.030;18.518;2022-08-03T07:35:52;5.68;;;3.40;;
69213;SDS011;56325;47.030;18.518;2022-08-03T07:39:30;3.67;;;3.50;;
69213;SDS011;56325;47.030;18.518;2022-08-03T07:42:52;3.33;;;3.12;;
69213;SDS011;56325;47.030;18.518;2022-08-03T07:45:55;9.75;;;3.30;;
69213;SDS011;56325;47.030;18.518;2022-08-03T07:52:39;4.50;;;4.10;;
69213;SDS011;56325;47.030;18.518;2022-08-03T07:56:36;7.32;;;3.65;;
69213;SDS011;56325;47.030;18.518;2022-08-03T07:59:44;6.35;;;3.65;;
69213;SDS011;56325;47.030;18.518;2022-08-03T08:02:59;4.72;;;3.47;;
69213;SDS011;56325;47.030;18.518;2022-08-03T08:06:03;3.50;;;3.33;;
69213;SDS011;56325;47.030;18.518;2022-08-03T08:09:11;3.70;;;3.45;;
69213;SDS011;56325;47.030;18.518;2022-08-03T08:12:36;3.92;;;3.60;;
69213;SDS011;56325;47.030;18.518;2022-08-03T08:15:42;4.90;;;3.33;;
69213;SDS011;56325;47.030;18.518;2022-08-03T08:18:48;3.78;;;3.47;;
69213;SDS011;56325;47.030;18.518;2022-08-03T08:21:51;3.50;;;3.30;;
69213;SDS011;56325;47.030;18.518;2022-08-03T08:25:04;3.97;;;3.05;;
69213;SDS011;56325;47.030;18.518;2022-08-03T08:28:09;3.40;;;3.12;;
69213;SDS011;56325;47.030;18.518;2022-08-03T08:31:32;3.10;;;3.00;;
69213;SDS011;56325;47.030;18.518;2022-08-03T08:34:35;3.37;;;3.08;;
69213;SDS011;56325;47.030;18.518;2022-08-03T08:37:39;3.33;;;3.05;;
69213;SDS011;56325;47.030;18.518;2022-08-03T08:40:43;3.17;;;3.05;;
69213;SDS011;56325;47.030;18.518;2022-08-03T08:43:52;3.12;;;2.92;;
69213;SDS011;56325;47.030;18.518;2022-08-03T08:50:08;2.97;;;2.87;;
69213;SDS011;56325;47.030;18.518;2022-08-03T08:53:28;8.25;;;2.70;;
69213;SDS011;56325;47.030;18.518;2022-08-03T08:56:34;3.95;;;2.70;;
69213;SDS011;56325;47.030;18.518;2022-08-03T08:59:40;3.08;;;2.90;;
69213;SDS011;56325;47.030;18.518;2022-08-03T09:02:51;5.18;;;3.03;;
69213;SDS011;56325;47.030;18.518;2022-08-03T09:06:02;6.70;;;2.67;;
69213;SDS011;56325;47.030;18.518;2022-08-03T09:09:08;3.17;;;2.97;;
69213;SDS011;56325;47.030;18.518;2022-08-03T09:12:52;2.42;;;2.33;;
69213;SDS011;56325;47.030;18.518;2022-08-03T09:16:08;3.35;;;2.97;;
69213;SDS011;56325;47.030;18.518;2022-08-03T09:19:12;5.87;;;2.70;;
69213;SDS011;56325;47.030;18.518;2022-08-03T09:22:21;7.10;;;2.50;;
69213;SDS011;56325;47.030;18.518;2022-08-03T09:25:28;2.87;;;2.67;;
69213;SDS011;56325;47.030;18.518;2022-08-03T09:28:37;18.37;;;3.37;;
69213;SDS011;56325;47.030;18.518;2022-08-03T09:32:01;3.67;;;2.50;;
69213;SDS011;56325;47.030;18.518;2022-08-03T09:35:05;4.60;;;2.00;;
69213;SDS011;56325;47.030;18.518;2022-08-03T09:38:17;3.30;;;2.35;;
69213;SDS011;56325;47.030;18.518;2022-08-03T09:41:29;2.00;;;1.90;;
69213;SDS011;56325;47.030;18.518;2022-08-03T09:44:33;6.43;;;2.15;;
69213;SDS011;56325;47.030;18.518;2022-08-03T09:47:38;5.50;;;2.35;;
69213;SDS011;56325;47.030;18.518;2022-08-03T09:50:48;2.55;;;2.37;;
69213;SDS011;56325;47.030;18.518;2022-08-03T09:54:28;31.13;;;3.53;;
69213;SDS011;56325;47.030;18.518;2022-08-03T09:58:04;7.35;;;2.50;;
69213;SDS011;56325;47.030;18.518;2022-08-03T10:01:09;4.62;;;2.20;;
69213;SDS011;56325;47.030;18.518;2022-08-03T10:04:28;4.70;;;2.05;;
69213;SDS011;56325;47.030;18.518;2022-08-03T10:07:40;4.87;;;2.15;;
69213;SDS011;56325;47.030;18.518;2022-08-03T10:10:50;8.05;;;2.00;;
69213;SDS011;56325;47.030;18.518;2022-08-03T10:13:56;1.70;;;1.70;;
69213;SDS011;56325;47.030;18.518;2022-08-03T10:17:04;3.20;;;2.50;;
69213;SDS011;56325;47.030;18.518;2022-08-03T10:20:19;2.35;;;2.25;;
69213;SDS011;56325;47.030;18.518;2022-08-03T10:23:24;1.85;;;1.83;;
69213;SDS011;56325;47.030;18.518;2022-08-03T10:26:27;2.05;;;1.70;;
69213;SDS011;56325;47.030;18.518;2022-08-03T10:29:38;3.60;;;1.80;;
69213;SDS011;56325;47.030;18.518;2022-08-03T10:36:49;2.10;;;1.90;;
69213;SDS011;56325;47.030;18.518;2022-08-03T10:39:56;2.12;;;2.03;;
69213;SDS011;56325;47.030;18.518;2022-08-03T10:43:04;1.92;;;1.70;;
69213;SDS011;56325;47.030;18.518;2022-08-03T10:46:11;1.95;;;1.85;;
69213;SDS011;56325;47.030;18.518;2022-08-03T10:49:40;14.15;;;2.40;;
69213;SDS011;56325;47.030;18.518;2022-08-03T10:53:07;1.90;;;1.80;;
69213;SDS011;56325;47.030;18.518;2022-08-03T10:59:57;4.40;;;1.85;;
69213;SDS011;56325;47.030;18.518;2022-08-03T11:03:14;2.20;;;2.00;;
69213;SDS011;56325;47.030;18.518;2022-08-03T11:06:23;4.37;;;2.00;;
69213;SDS011;56325;47.030;18.518;2022-08-03T11:09:28;2.25;;;1.85;;
69213;SDS011;56325;47.030;18.518;2022-08-03T11:12:50;1.52;;;1.52;;
69213;SDS011;56325;47.030;18.518;2022-08-03T11:15:54;3.15;;;1.98;;
69213;SDS011;56325;47.030;18.518;2022-08-03T11:19:07;1.73;;;1.65;;
69213;SDS011;56325;47.030;18.518;2022-08-03T11:22:13;1.90;;;1.80;;
69213;SDS011;56325;47.030;18.518;2022-08-03T11:25:17;1.55;;;1.55;;
69213;SDS011;56325;47.030;18.518;2022-08-03T11:28:42;5.18;;;1.52;;
69213;SDS011;56325;47.030;18.518;2022-08-03T11:31:49;1.50;;;1.40;;
69213;SDS011;56325;47.030;18.518;2022-08-03T11:35:15;1.52;;;1.52;;
69213;SDS011;56325;47.030;18.518;2022-08-03T11:38:18;1.95;;;1.85;;
69213;SDS011;56325;47.030;18.518;2022-08-03T11:41:32;4.10;;;1.80;;
69213;SDS011;56325;47.030;18.518;2022-08-03T11:44:56;1.90;;;1.80;;
69213;SDS011;56325;47.030;18.518;2022-08-03T11:48:24;2.80;;;1.70;;
69213;SDS011;56325;47.030;18.518;2022-08-03T11:54:33;1.87;;;1.70;;
69213;SDS011;56325;47.030;18.518;2022-08-03T11:57:37;1.60;;;1.60;;
69213;SDS011;56325;47.030;18.518;2022-08-03T12:01:03;1.70;;;1.60;;
69213;SDS011;56325;47.030;18.518;2022-08-03T12:04:13;2.05;;;1.87;;
69213;SDS011;56325;47.030;18.518;2022-08-03T12:07:23;7.57;;;1.75;;
69213;SDS011;56325;47.030;18.518;2022-08-03T12:10:50;2.25;;;2.15;;
69213;SDS011;56325;47.030;18.518;2022-08-03T12:13:53;2.80;;;1.70;;
69213;SDS011;56325;47.030;18.518;2022-08-03T12:17:16;2.40;;;1.98;;
69213;SDS011;56325;47.030;18.518;2022-08-03T12:20:25;1.90;;;1.80;;
69213;SDS011;56325;47.030;18.518;2022-08-03T12:23:37;2.17;;;1.98;;
69213;SDS011;56325;47.030;18.518;2022-08-03T12:26:45;1.95;;;1.95;;
69213;SDS011;56325;47.030;18.518;2022-08-03T12:30:03;2.33;;;2.20;;
69213;SDS011;56325;47.030;18.518;2022-08-03T12:36:56;2.72;;;1.80;;
69213;SDS011;56325;47.030;18.518;2022-08-03T12:40:01;1.87;;;1.87;;
69213;SDS011;56325;47.030;18.518;2022-08-03T12:43:12;2.00;;;1.90;;
69213;SDS011;56325;47.030;18.518;2022-08-03T12:46:16;1.70;;;1.70;;
69213;SDS011;56325;47.030;18.518;2022-08-03T12:49:20;2.08;;;1.73;;
69213;SDS011;56325;47.030;18.518;2022-08-03T12:52:23;2.10;;;1.90;;
69213;SDS011;56325;47.030;18.518;2022-08-03T12:55:32;1.95;;;1.87;;
69213;SDS011;56325;47.030;18.518;2022-08-03T12:59:23;3.22;;;2.05;;
69213;SDS011;56325;47.030;18.518;2022-08-03T13:02:38;1.55;;;1.55;;
69213;SDS011;56325;47.030;18.518;2022-08-03T13:09:06;1.80;;;1.80;;
69213;SDS011;56325;47.030;18.518;2022-08-03T13:12:11;2.05;;;1.92;;
69213;SDS011;56325;47.030;18.518;2022-08-03T13:15:15;2.60;;;1.80;;
69213;SDS011;56325;47.030;18.518;2022-08-03T13:18:18;4.37;;;1.80;;
69213;SDS011;56325;47.030;18.518;2022-08-03T13:21:23;2.40;;;1.75;;
69213;SDS011;56325;47.030;18.518;2022-08-03T13:25:26;4.12;;;1.80;;
69213;SDS011;56325;47.030;18.518;2022-08-03T13:28:31;2.00;;;1.85;;
69213;SDS011;56325;47.030;18.518;2022-08-03T13:31:35;1.50;;;1.40;;
69213;SDS011;56325;47.030;18.518;2022-08-03T13:34:52;1.60;;;1.60;;
69213;SDS011;56325;47.030;18.518;2022-08-03T13:37:55;3.53;;;1.73;;
69213;SDS011;56325;47.030;18.518;2022-08-03T13:41:18;5.62;;;2.00;;
69213;SDS011;56325;47.030;18.518;2022-08-03T13:44:34;2.00;;;1.80;;
69213;SDS011;56325;47.030;18.518;2022-08-03T13:48:00;1.60;;;1.50;;
69213;SDS011;56325;47.030;18.518;2022-08-03T13:51:23;3.70;;;1.48;;
69213;SDS011;56325;47.030;18.518;2022-08-03T13:54:26;1.60;;;1.50;;
69213;SDS011;56325;47.030;18.518;2022-08-03T13:57:33;4.20;;;1.37;;
69213;SDS011;56325;47.030;18.518;2022-08-03T14:00:58;4.70;;;1.73;;
69213;SDS011;56325;47.030;18.518;2022-08-03T14:04:01;1.73;;;1.73;;
69213;SDS011;56325;47.030;18.518;2022-08-03T14:07:07;1.65;;;1.65;;
69213;SDS011;56325;47.030;18.518;2022-08-03T14:10:13;1.45;;;1.45;;
69213;SDS011;56325;47.030;18.518;2022-08-03T14:13:17;4.62;;;1.90;;
69213;SDS011;56325;47.030;18.518;2022-08-03T14:16:21;1.45;;;1.35;;
69213;SDS011;56325;47.030;18.518;2022-08-03T14:19:24;1.85;;;1.67;;
69213;SDS011;56325;47.030;18.518;2022-08-03T14:22:33;1.80;;;1.70;;
69213;SDS011;56325;47.030;18.518;2022-08-03T14:25:37;1.60;;;1.60;;
69213;SDS011;56325;47.030;18.518;2022-08-03T14:28:53;1.40;;;1.40;;
69213;SDS011;56325;47.030;18.518;2022-08-03T14:31:57;10.32;;;2.30;;
69213;SDS011;56325;47.030;18.518;2022-08-03T14:35:15;2.08;;;1.65;;
69213;SDS011;56325;47.030;18.518;2022-08-03T14:38:18;1.90;;;1.70;;
69213;SDS011;56325;47.030;18.518;2022-08-03T14:41:23;5.45;;;1.50;;
69213;SDS011;56325;47.030;18.518;2022-08-03T14:44:26;2.05;;;1.55;;
69213;SDS011;56325;47.030;18.518;2022-08-03T14:47:44;12.88;;;1.60;;
69213;SDS011;56325;47.030;18.518;2022-08-03T14:51:07;5.05;;;1.60;;
69213;SDS011;56325;47.030;18.518;2022-08-03T14:54:10;2.50;;;1.50;;
69213;SDS011;56325;47.030;18.518;2022-08-03T14:57:13;1.52;;;1.52;;
69213;SDS011;56325;47.030;18.518;2022-08-03T15:00:18;1.55;;;1.45;;
69213;SDS011;56325;47.030;18.518;2022-08-03T15:03:43;5.85;;;1.60;;
69213;SDS011;56325;47.030;18.518;2022-08-03T15:06:48;3.60;;;2.08;;
69213;SDS011;56325;47.030;18.518;2022-08-03T15:09:52;6.47;;;1.77;;
69213;SDS011;56325;47.030;18.518;2022-08-03T15:13:36;3.95;;;1.67;;
69213;SDS011;56325;47.030;18.518;2022-08-03T15:16:39;4.32;;;1.77;;
69213;SDS011;56325;47.030;18.518;2022-08-03T15:19:43;1.40;;;1.40;;
69213;SDS011;56325;47.030;18.518;2022-08-03T15:23:06;1.90;;;1.70;;
69213;SDS011;56325;47.030;18.518;2022-08-03T15:26:10;6.07;;;1.62;;
69213;SDS011;56325;47.030;18.518;2022-08-03T15:33:17;1.67;;;1.60;;
69213;SDS011;56325;47.030;18.518;2022-08-03T15:36:40;9.90;;;2.12;;
69213;SDS011;56325;47.030;18.518;2022-08-03T15:43:45;3.45;;;1.80;;
69213;SDS011;56325;47.030;18.518;2022-08-03T17:24:02;2.60;;;2.40;;
69213;SDS011;56325;47.030;18.518;2022-08-03T17:27:41;5.55;;;3.45;;
69213;SDS011;56325;47.030;18.518;2022-08-03T17:31:16;12.93;;;3.05;;
69213;SDS011;56325;47.030;18.518;2022-08-03T17:34:33;7.85;;;2.78;;
69213;SDS011;56325;47.030;18.518;2022-08-03T17:37:36;8.73;;;2.72;;
69213;SDS011;56325;47.030;18.518;2022-08-03T17:40:59;3.92;;;2.90;;
69213;SDS011;56325;47.030;18.518;2022-08-03T17:44:13;9.48;;;3.45;;
69213;SDS011;56325;47.030;18.518;2022-08-03T17:47:37;119.53;;;8.85;;
69213;SDS011;56325;47.030;18.518;2022-08-03T17:50:48;77.68;;;9.20;;
69213;SDS011;56325;47.030;18.518;2022-08-03T17:54:05;63.53;;;9.30;;
69213;SDS011;56325;47.030;18.518;2022-08-03T18:01:05;18.30;;;6.32;;
69213;SDS011;56325;47.030;18.518;2022-08-03T18:04:58;34.25;;;7.22;;
69213;SDS011;56325;47.030;18.518;2022-08-03T18:11:27;18.37;;;5.00;;
69213;SDS011;56325;47.030;18.518;2022-08-03T18:14:47;20.27;;;5.35;;
69213;SDS011;56325;47.030;18.518;2022-08-03T18:18:04;26.62;;;4.62;;
69213;SDS011;56325;47.030;18.518;2022-08-03T18:21:13;23.02;;;3.58;;
69213;SDS011;56325;47.030;18.518;2022-08-03T18:24:19;24.12;;;3.62;;
69213;SDS011;56325;47.030;18.518;2022-08-03T18:27:26;35.72;;;4.85;;
69213;SDS011;56325;47.030;18.518;2022-08-03T18:30:49;34.33;;;3.40;;
69213;SDS011;56325;47.030;18.518;2022-08-03T18:33:55;26.08;;;3.33;;
69213;SDS011;56325;47.030;18.518;2022-08-03T18:37:22;16.55;;;3.33;;
69213;SDS011;56325;47.030;18.518;2022-08-03T18:40:27;11.70;;;3.40;;
69213;SDS011;56325;47.030;18.518;2022-08-03T18:43:38;7.93;;;2.53;;
69213;SDS011;56325;47.030;18.518;2022-08-03T18:47:28;14.87;;;2.60;;
69213;SDS011;56325;47.030;18.518;2022-08-03T18:54:20;2.28;;;2.17;;
69213;SDS011;56325;47.030;18.518;2022-08-03T18:57:56;29.52;;;3.28;;
69213;SDS011;56325;47.030;18.518;2022-08-03T19:05:05;16.95;;;2.65;;
69213;SDS011;56325;47.030;18.518;2022-08-03T19:08:15;7.72;;;2.58;;
69213;SDS011;56325;47.030;18.518;2022-08-03T19:11:36;19.15;;;3.15;;
69213;SDS011;56325;47.030;18.518;2022-08-03T19:15:06;7.75;;;2.58;;
69213;SDS011;56325;47.030;18.518;2022-08-03T19:18:19;6.45;;;2.67;;
69213;SDS011;56325;47.030;18.518;2022-08-03T19:21:47;6.70;;;2.90;;
69213;SDS011;56325;47.030;18.518;2022-08-03T19:24:54;5.93;;;2.83;;
69213;SDS011;56325;47.030;18.518;2022-08-03T19:27:57;12.55;;;2.75;;
69213;SDS011;56325;47.030;18.518;2022-08-03T19:31:19;16.17;;;3.00;;
69213;SDS011;56325;47.030;18.518;2022-08-03T19:34:33;11.43;;;3.00;;
69213;SDS011;56325;47.030;18.518;2022-08-03T19:37:39;21.70;;;3.00;;
69213;SDS011;56325;47.030;18.518;2022-08-03T19:40:49;21.95;;;3.28;;
69213;SDS011;56325;47.030;18.518;2022-08-03T19:43:57;6.90;;;2.90;;
69213;SDS011;56325;47.030;18.518;2022-08-03T19:47:10;9.23;;;2.97;;
69213;SDS011;56325;47.030;18.518;2022-08-03T19:50:24;14.93;;;3.08;;
69213;SDS011;56325;47.030;18.518;2022-08-03T19:53:32;6.75;;;3.03;;
69213;SDS011;56325;47.030;18.518;2022-08-03T19:56:59;6.85;;;2.22;;
69213;SDS011;56325;47.030;18.518;2022-08-03T20:00:09;7.32;;;2.20;;
69213;SDS011;56325;47.030;18.518;2022-08-03T20:03:15;2.72;;;2.22;;
69213;SDS011;56325;47.030;18.518;2022-08-03T20:06:26;3.33;;;2.25;;
69213;SDS011;56325;47.030;18.518;2022-08-03T20:09:34;6.18;;;2.28;;
69213;SDS011;56325;47.030;18.518;2022-08-03T20:12:48;5.37;;;2.15;;
69213;SDS011;56325;47.030;18.518;2022-08-03T20:16:11;13.68;;;2.90;;
69213;SDS011;56325;47.030;18.518;2022-08-03T20:19:17;3.30;;;2.20;;
69213;SDS011;56325;47.030;18.518;2022-08-03T20:22:24;5.97;;;2.50;;
69213;SDS011;56325;47.030;18.518;2022-08-03T20:25:37;4.28;;;2.42;;
69213;SDS011;56325;47.030;18.518;2022-08-03T20:29:04;2.35;;;2.15;;
69213;SDS011;56325;47.030;18.518;2022-08-03T20:32:33;4.25;;;2.60;;
69213;SDS011;56325;47.030;18.518;2022-08-03T20:35:38;6.30;;;2.33;;
69213;SDS011;56325;47.030;18.518;2022-08-03T20:39:07;5.03;;;2.10;;
69213;SDS011;56325;47.030;18.518;2022-08-03T20:42:35;2.33;;;2.22;;
69213;SDS011;56325;47.030;18.518;2022-08-03T20:45:42;4.97;;;2.53;;
69213;SDS011;56325;47.030;18.518;2022-08-03T20:49:10;6.62;;;2.70;;
69213;SDS011;56325;47.030;18.518;2022-08-03T20:52:34;2.97;;;2.20;;
69213;SDS011;56325;47.030;18.518;2022-08-03T20:56:04;6.50;;;2.35;;
69213;SDS011;56325;47.030;18.518;2022-08-03T20:59:10;4.97;;;2.25;;
69213;SDS011;56325;47.030;18.518;2022-08-03T21:02:38;5.78;;;2.80;;
69213;SDS011;56325;47.030;18.518;2022-08-03T21:05:43;5.35;;;3.12;;
69213;SDS011;56325;47.030;18.518;2022-08-03T21:08:57;2.40;;;2.30;;
69213;SDS011;56325;47.030;18.518;2022-08-03T21:12:30;3.00;;;2.75;;
69213;SDS011;56325;47.030;18.518;2022-08-03T21:15:39;5.90;;;2.47;;
69213;SDS011;56325;47.030;18.518;2022-08-03T21:19:13;4.25;;;2.50;;
69213;SDS011;56325;47.030;18.518;2022-08-03T21:22:20;4.75;;;3.00;;
69213;SDS011;56325;47.030;18.518;2022-08-03T21:25:25;3.92;;;2.50;;
69213;SDS011;56325;47.030;18.518;2022-08-03T21:28:33;6.75;;;2.30;;
69213;SDS011;56325;47.030;18.518;2022-08-03T21:31:38;4.85;;;2.40;;
69213;SDS011;56325;47.030;18.518;2022-08-03T21:34:42;4.03;;;2.15;;
69213;SDS011;56325;47.030;18.518;2022-08-03T21:37:47;2.47;;;2.28;;
69213;SDS011;56325;47.030;18.518;2022-08-03T21:41:11;3.37;;;2.17;;
69213;SDS011;56325;47.030;18.518;2022-08-03T21:44:54;2.17;;;2.08;;
69213;SDS011;56325;47.030;18.518;2022-08-03T21:47:58;5.90;;;2.50;;
69213;SDS011;56325;47.030;18.518;2022-08-03T21:51:02;7.15;;;2.15;;
69213;SDS011;56325;47.030;18.518;2022-08-03T21:54:06;4.97;;;2.20;;
69213;SDS011;56325;47.030;18.518;2022-08-03T21:57:18;2.35;;;2.17;;
69213;SDS011;56325;47.030;18.518;2022-08-03T22:00:25;7.28;;;2.12;;
69213;SDS011;56325;47.030;18.518;2022-08-03T22:03:31;4.12;;;2.45;;
69213;SDS011;56325;47.030;18.518;2022-08-03T22:07:14;4.85;;;2.28;;
69213;SDS011;56325;47.030;18.518;2022-08-03T22:10:19;5.32;;;2.35;;
69213;SDS011;56325;47.030;18.518;2022-08-03T22:13:22;4.25;;;2.40;;
69213;SDS011;56325;47.030;18.518;2022-08-03T22:16:45;2.83;;;2.62;;
69213;SDS011;56325;47.030;18.518;2022-08-03T22:19:51;2.30;;;2.20;;